Terminal Aerodrome Forecast
Issued by NWS

Home | Current Version | Previous Version | Text Only | Print | Product List | Glossary Off
Versions: 1 2 3 4 5 6 7 8 9 10 11 12 13 14 15 16 17 18

000
FTUS43 KMPX 191100
TAFRNH
TAF
KRNH 191139Z 1912/2012 28003KT 6SM BR SCT002
      TEMPO 1912/1915 2SM BR BKN001
     FM191500 29006KT P6SM SCT020
     FM191800 31007KT P6SM -SHRA SCT060 BKN100
     FM200000 36004KT 6SM BR SCT100 SCT200
     FM200600 VRB02KT 4SM BR SCT003 SCT200
     FM200800 00000KT 2SM BR SCT001
      TEMPO 2008/2012 1/2SM FG BKN001=

USA.gov is the U.S. government's official web portal to all federal, state and local government web resources and services.